sensor_id;sensor_type;location;lat;lon;timestamp;P1;durP1;ratioP1;P2;durP2;ratioP2
5704;SDS011;2877;48.238;11.160;2023-03-01T00:00:40;15.87;;;10.30;;
5704;SDS011;2877;48.238;11.160;2023-03-01T00:03:05;15.83;;;10.30;;
5704;SDS011;2877;48.238;11.160;2023-03-01T00:05:32;17.07;;;10.40;;
5704;SDS011;2877;48.238;11.160;2023-03-01T00:07:57;15.20;;;9.07;;
5704;SDS011;2877;48.238;11.160;2023-03-01T00:10:23;14.60;;;10.20;;
5704;SDS011;2877;48.238;11.160;2023-03-01T00:12:48;15.40;;;10.27;;
5704;SDS011;2877;48.238;11.160;2023-03-01T00:15:14;15.13;;;9.80;;
5704;SDS011;2877;48.238;11.160;2023-03-01T00:17:39;15.43;;;9.77;;
5704;SDS011;2877;48.238;11.160;2023-03-01T00:20:05;18.50;;;10.47;;
5704;SDS011;2877;48.238;11.160;2023-03-01T00:22:35;19.00;;;10.70;;
5704;SDS011;2877;48.238;11.160;2023-03-01T00:25:01;16.93;;;10.30;;
5704;SDS011;2877;48.238;11.160;2023-03-01T00:27:26;22.40;;;10.57;;
5704;SDS011;2877;48.238;11.160;2023-03-01T00:29:52;16.83;;;9.60;;
5704;SDS011;2877;48.238;11.160;2023-03-01T00:32:17;16.10;;;9.93;;
5704;SDS011;2877;48.238;11.160;2023-03-01T00:34:43;16.67;;;9.70;;
5704;SDS011;2877;48.238;11.160;2023-03-01T00:37:18;17.03;;;10.77;;
5704;SDS011;2877;48.238;11.160;2023-03-01T00:39:47;14.97;;;9.77;;
5704;SDS011;2877;48.238;11.160;2023-03-01T00:42:13;13.90;;;8.60;;
5704;SDS011;2877;48.238;11.160;2023-03-01T00:44:38;15.17;;;10.50;;
5704;SDS011;2877;48.238;11.160;2023-03-01T00:47:04;15.57;;;9.70;;
5704;SDS011;2877;48.238;11.160;2023-03-01T00:49:30;17.83;;;10.70;;
5704;SDS011;2877;48.238;11.160;2023-03-01T00:51:55;16.27;;;10.47;;
5704;SDS011;2877;48.238;11.160;2023-03-01T00:54:21;14.97;;;10.20;;
5704;SDS011;2877;48.238;11.160;2023-03-01T00:56:46;15.73;;;10.03;;
5704;SDS011;2877;48.238;11.160;2023-03-01T00:59:12;14.10;;;10.07;;
5704;SDS011;2877;48.238;11.160;2023-03-01T01:01:37;13.63;;;9.10;;
5704;SDS011;2877;48.238;11.160;2023-03-01T01:04:04;16.93;;;10.40;;
5704;SDS011;2877;48.238;11.160;2023-03-01T01:06:41;14.90;;;9.40;;
5704;SDS011;2877;48.238;11.160;2023-03-01T01:09:09;14.77;;;10.07;;
5704;SDS011;2877;48.238;11.160;2023-03-01T01:11:42;18.50;;;10.57;;
5704;SDS011;2877;48.238;11.160;2023-03-01T01:14:08;16.10;;;10.77;;
5704;SDS011;2877;48.238;11.160;2023-03-01T01:16:34;16.37;;;10.43;;
5704;SDS011;2877;48.238;11.160;2023-03-01T01:18:59;15.70;;;9.60;;
5704;SDS011;2877;48.238;11.160;2023-03-01T01:21:25;17.27;;;10.90;;
5704;SDS011;2877;48.238;11.160;2023-03-01T01:23:52;15.97;;;10.07;;
5704;SDS011;2877;48.238;11.160;2023-03-01T01:26:25;15.03;;;9.63;;
5704;SDS011;2877;48.238;11.160;2023-03-01T01:28:55;15.90;;;9.70;;
5704;SDS011;2877;48.238;11.160;2023-03-01T01:31:21;15.33;;;10.00;;
5704;SDS011;2877;48.238;11.160;2023-03-01T01:33:51;14.20;;;9.53;;
5704;SDS011;2877;48.238;11.160;2023-03-01T01:36:17;15.13;;;9.77;;
5704;SDS011;2877;48.238;11.160;2023-03-01T01:38:43;15.00;;;9.43;;
5704;SDS011;2877;48.238;11.160;2023-03-01T01:41:10;17.30;;;9.93;;
5704;SDS011;2877;48.238;11.160;2023-03-01T01:46:25;17.10;;;10.10;;
5704;SDS011;2877;48.238;11.160;2023-03-01T01:48:59;17.10;;;10.17;;
5704;SDS011;2877;48.238;11.160;2023-03-01T01:51:36;12.83;;;9.53;;
5704;SDS011;2877;48.238;11.160;2023-03-01T01:54:16;16.60;;;10.37;;
5704;SDS011;2877;48.238;11.160;2023-03-01T01:56:52;16.40;;;10.80;;
5704;SDS011;2877;48.238;11.160;2023-03-01T01:59:21;13.57;;;8.73;;
5704;SDS011;2877;48.238;11.160;2023-03-01T02:01:49;15.50;;;9.50;;
5704;SDS011;2877;48.238;11.160;2023-03-01T02:04:16;17.10;;;10.73;;
5704;SDS011;2877;48.238;11.160;2023-03-01T02:06:48;19.63;;;9.40;;
5704;SDS011;2877;48.238;11.160;2023-03-01T02:09:20;15.90;;;10.30;;
5704;SDS011;2877;48.238;11.160;2023-03-01T02:11:48;16.80;;;10.17;;
5704;SDS011;2877;48.238;11.160;2023-03-01T02:14:15;14.83;;;9.77;;
5704;SDS011;2877;48.238;11.160;2023-03-01T02:16:41;18.67;;;11.17;;
5704;SDS011;2877;48.238;11.160;2023-03-01T02:19:07;15.10;;;9.03;;
5704;SDS011;2877;48.238;11.160;2023-03-01T02:21:54;15.70;;;10.07;;
5704;SDS011;2877;48.238;11.160;2023-03-01T02:25:12;13.37;;;9.70;;
5704;SDS011;2877;48.238;11.160;2023-03-01T02:30:26;15.50;;;9.70;;
5704;SDS011;2877;48.238;11.160;2023-03-01T02:32:53;14.57;;;9.67;;
5704;SDS011;2877;48.238;11.160;2023-03-01T02:35:27;14.10;;;8.63;;
5704;SDS011;2877;48.238;11.160;2023-03-01T02:38:02;14.30;;;9.20;;
5704;SDS011;2877;48.238;11.160;2023-03-01T02:40:31;14.93;;;9.57;;
5704;SDS011;2877;48.238;11.160;2023-03-01T02:42:59;14.40;;;8.93;;
5704;SDS011;2877;48.238;11.160;2023-03-01T02:45:25;15.07;;;9.73;;
5704;SDS011;2877;48.238;11.160;2023-03-01T02:47:54;15.03;;;9.70;;
5704;SDS011;2877;48.238;11.160;2023-03-01T02:53:02;20.47;;;9.70;;
5704;SDS011;2877;48.238;11.160;2023-03-01T02:55:37;15.73;;;9.20;;
5704;SDS011;2877;48.238;11.160;2023-03-01T02:58:03;18.90;;;10.27;;
5704;SDS011;2877;48.238;11.160;2023-03-01T03:00:39;15.33;;;9.53;;
5704;SDS011;2877;48.238;11.160;2023-03-01T03:03:12;15.07;;;9.83;;
5704;SDS011;2877;48.238;11.160;2023-03-01T03:05:40;17.23;;;10.60;;
5704;SDS011;2877;48.238;11.160;2023-03-01T03:08:05;15.20;;;9.60;;
5704;SDS011;2877;48.238;11.160;2023-03-01T03:10:34;13.67;;;9.60;;
5704;SDS011;2877;48.238;11.160;2023-03-01T03:13:02;18.30;;;10.00;;
5704;SDS011;2877;48.238;11.160;2023-03-01T03:15:30;15.33;;;10.43;;
5704;SDS011;2877;48.238;11.160;2023-03-01T03:17:57;15.50;;;9.27;;
5704;SDS011;2877;48.238;11.160;2023-03-01T03:20:24;15.93;;;9.60;;
5704;SDS011;2877;48.238;11.160;2023-03-01T03:22:53;14.13;;;9.57;;
5704;SDS011;2877;48.238;11.160;2023-03-01T03:25:20;14.77;;;9.30;;
5704;SDS011;2877;48.238;11.160;2023-03-01T03:27:47;15.97;;;10.07;;
5704;SDS011;2877;48.238;11.160;2023-03-01T03:30:15;14.53;;;10.00;;
5704;SDS011;2877;48.238;11.160;2023-03-01T03:32:43;16.73;;;10.70;;
5704;SDS011;2877;48.238;11.160;2023-03-01T03:35:20;16.63;;;9.47;;
5704;SDS011;2877;48.238;11.160;2023-03-01T03:37:55;14.70;;;9.70;;
5704;SDS011;2877;48.238;11.160;2023-03-01T03:40:38;19.63;;;10.80;;
5704;SDS011;2877;48.238;11.160;2023-03-01T03:43:09;16.90;;;9.90;;
5704;SDS011;2877;48.238;11.160;2023-03-01T03:45:37;14.50;;;9.57;;
5704;SDS011;2877;48.238;11.160;2023-03-01T03:48:04;19.83;;;11.00;;
5704;SDS011;2877;48.238;11.160;2023-03-01T03:50:31;13.90;;;9.47;;
5704;SDS011;2877;48.238;11.160;2023-03-01T03:52:57;17.43;;;9.80;;
5704;SDS011;2877;48.238;11.160;2023-03-01T03:55:25;14.40;;;9.47;;
5704;SDS011;2877;48.238;11.160;2023-03-01T03:57:55;15.90;;;10.77;;
5704;SDS011;2877;48.238;11.160;2023-03-01T04:00:23;14.80;;;9.17;;
5704;SDS011;2877;48.238;11.160;2023-03-01T04:02:49;20.50;;;10.17;;
5704;SDS011;2877;48.238;11.160;2023-03-01T04:05:16;14.07;;;9.07;;
5704;SDS011;2877;48.238;11.160;2023-03-01T04:07:43;16.27;;;9.43;;
5704;SDS011;2877;48.238;11.160;2023-03-01T04:10:09;15.30;;;9.80;;
5704;SDS011;2877;48.238;11.160;2023-03-01T04:12:37;14.73;;;8.50;;
5704;SDS011;2877;48.238;11.160;2023-03-01T04:15:05;16.30;;;10.47;;
5704;SDS011;2877;48.238;11.160;2023-03-01T04:17:45;17.17;;;10.20;;
5704;SDS011;2877;48.238;11.160;2023-03-01T04:20:12;14.97;;;9.30;;
5704;SDS011;2877;48.238;11.160;2023-03-01T04:22:42;14.80;;;10.00;;
5704;SDS011;2877;48.238;11.160;2023-03-01T04:25:11;16.60;;;10.37;;
5704;SDS011;2877;48.238;11.160;2023-03-01T04:27:39;15.60;;;10.57;;
5704;SDS011;2877;48.238;11.160;2023-03-01T04:30:05;15.73;;;9.33;;
5704;SDS011;2877;48.238;11.160;2023-03-01T04:32:32;15.20;;;9.53;;
5704;SDS011;2877;48.238;11.160;2023-03-01T04:34:58;15.93;;;9.90;;
5704;SDS011;2877;48.238;11.160;2023-03-01T04:37:24;15.90;;;10.00;;
5704;SDS011;2877;48.238;11.160;2023-03-01T04:39:50;16.43;;;9.50;;
5704;SDS011;2877;48.238;11.160;2023-03-01T04:42:16;14.87;;;9.50;;
5704;SDS011;2877;48.238;11.160;2023-03-01T04:44:41;16.60;;;10.57;;
5704;SDS011;2877;48.238;11.160;2023-03-01T04:47:08;16.67;;;11.13;;
5704;SDS011;2877;48.238;11.160;2023-03-01T04:49:34;15.63;;;10.10;;
5704;SDS011;2877;48.238;11.160;2023-03-01T04:51:59;17.87;;;10.57;;
5704;SDS011;2877;48.238;11.160;2023-03-01T04:54:36;16.37;;;11.07;;
5704;SDS011;2877;48.238;11.160;2023-03-01T04:57:02;16.90;;;10.10;;
5704;SDS011;2877;48.238;11.160;2023-03-01T04:59:28;16.93;;;10.40;;
5704;SDS011;2877;48.238;11.160;2023-03-01T05:01:56;18.27;;;11.00;;
5704;SDS011;2877;48.238;11.160;2023-03-01T05:04:22;18.23;;;9.97;;
5704;SDS011;2877;48.238;11.160;2023-03-01T05:06:49;17.47;;;9.93;;
5704;SDS011;2877;48.238;11.160;2023-03-01T05:09:15;17.70;;;10.70;;
5704;SDS011;2877;48.238;11.160;2023-03-01T05:11:40;17.97;;;10.70;;
5704;SDS011;2877;48.238;11.160;2023-03-01T05:14:07;16.67;;;10.30;;
5704;SDS011;2877;48.238;11.160;2023-03-01T05:16:34;15.13;;;10.13;;
5704;SDS011;2877;48.238;11.160;2023-03-01T05:19:01;18.30;;;10.60;;
5704;SDS011;2877;48.238;11.160;2023-03-01T05:21:36;16.30;;;10.40;;
5704;SDS011;2877;48.238;11.160;2023-03-01T05:24:24;18.47;;;9.77;;
5704;SDS011;2877;48.238;11.160;2023-03-01T05:26:50;22.07;;;11.07;;
5704;SDS011;2877;48.238;11.160;2023-03-01T05:29:19;19.07;;;10.90;;
5704;SDS011;2877;48.238;11.160;2023-03-01T05:31:50;16.77;;;9.97;;
5704;SDS011;2877;48.238;11.160;2023-03-01T05:34:27;14.70;;;9.20;;
5704;SDS011;2877;48.238;11.160;2023-03-01T05:36:54;16.60;;;10.53;;
5704;SDS011;2877;48.238;11.160;2023-03-01T05:39:20;16.60;;;10.47;;
5704;SDS011;2877;48.238;11.160;2023-03-01T05:41:47;16.87;;;10.10;;
5704;SDS011;2877;48.238;11.160;2023-03-01T05:44:13;18.10;;;10.23;;
5704;SDS011;2877;48.238;11.160;2023-03-01T05:46:38;16.50;;;10.17;;
5704;SDS011;2877;48.238;11.160;2023-03-01T05:49:04;16.37;;;10.87;;
5704;SDS011;2877;48.238;11.160;2023-03-01T05:51:30;16.80;;;10.33;;
5704;SDS011;2877;48.238;11.160;2023-03-01T05:53:55;19.43;;;10.77;;
5704;SDS011;2877;48.238;11.160;2023-03-01T05:56:21;16.10;;;10.43;;
5704;SDS011;2877;48.238;11.160;2023-03-01T05:58:47;16.90;;;10.20;;
5704;SDS011;2877;48.238;11.160;2023-03-01T06:01:14;18.13;;;10.20;;
5704;SDS011;2877;48.238;11.160;2023-03-01T06:03:40;16.90;;;10.90;;
5704;SDS011;2877;48.238;11.160;2023-03-01T06:06:05;18.53;;;10.20;;
5704;SDS011;2877;48.238;11.160;2023-03-01T06:08:31;23.40;;;11.13;;
5704;SDS011;2877;48.238;11.160;2023-03-01T06:10:57;16.87;;;9.80;;
5704;SDS011;2877;48.238;11.160;2023-03-01T06:13:23;17.80;;;10.37;;
5704;SDS011;2877;48.238;11.160;2023-03-01T06:15:49;19.87;;;11.70;;
5704;SDS011;2877;48.238;11.160;2023-03-01T06:18:14;17.57;;;10.83;;
5704;SDS011;2877;48.238;11.160;2023-03-01T06:20:40;16.03;;;10.30;;
5704;SDS011;2877;48.238;11.160;2023-03-01T06:23:06;16.07;;;9.97;;
5704;SDS011;2877;48.238;11.160;2023-03-01T06:25:31;17.30;;;10.03;;
5704;SDS011;2877;48.238;11.160;2023-03-01T06:27:57;19.60;;;11.27;;
5704;SDS011;2877;48.238;11.160;2023-03-01T06:30:23;17.83;;;10.53;;
5704;SDS011;2877;48.238;11.160;2023-03-01T06:32:50;18.70;;;10.60;;
5704;SDS011;2877;48.238;11.160;2023-03-01T06:35:16;18.90;;;9.87;;
5704;SDS011;2877;48.238;11.160;2023-03-01T06:37:43;14.90;;;10.03;;
5704;SDS011;2877;48.238;11.160;2023-03-01T06:40:09;14.70;;;9.93;;
5704;SDS011;2877;48.238;11.160;2023-03-01T06:42:36;16.63;;;9.50;;
5704;SDS011;2877;48.238;11.160;2023-03-01T06:45:04;17.30;;;10.00;;
5704;SDS011;2877;48.238;11.160;2023-03-01T06:47:31;18.10;;;10.93;;
5704;SDS011;2877;48.238;11.160;2023-03-01T06:49:58;17.53;;;9.77;;
5704;SDS011;2877;48.238;11.160;2023-03-01T06:52:24;17.80;;;10.00;;
5704;SDS011;2877;48.238;11.160;2023-03-01T06:54:49;19.10;;;8.90;;
5704;SDS011;2877;48.238;11.160;2023-03-01T06:57:15;14.73;;;9.00;;
5704;SDS011;2877;48.238;11.160;2023-03-01T06:59:40;16.77;;;10.30;;
5704;SDS011;2877;48.238;11.160;2023-03-01T07:02:06;14.10;;;9.43;;
5704;SDS011;2877;48.238;11.160;2023-03-01T07:04:34;17.50;;;10.83;;
5704;SDS011;2877;48.238;11.160;2023-03-01T07:06:59;16.57;;;10.73;;
5704;SDS011;2877;48.238;11.160;2023-03-01T07:09:26;20.20;;;10.60;;
5704;SDS011;2877;48.238;11.160;2023-03-01T07:11:51;20.87;;;8.40;;
5704;SDS011;2877;48.238;11.160;2023-03-01T07:14:17;19.17;;;10.17;;
5704;SDS011;2877;48.238;11.160;2023-03-01T07:16:42;17.63;;;10.17;;
5704;SDS011;2877;48.238;11.160;2023-03-01T07:19:08;15.37;;;10.07;;
5704;SDS011;2877;48.238;11.160;2023-03-01T07:21:33;17.47;;;9.80;;
5704;SDS011;2877;48.238;11.160;2023-03-01T07:23:59;16.80;;;10.40;;
5704;SDS011;2877;48.238;11.160;2023-03-01T07:26:24;18.67;;;10.33;;
5704;SDS011;2877;48.238;11.160;2023-03-01T07:28:50;14.10;;;9.20;;
5704;SDS011;2877;48.238;11.160;2023-03-01T07:31:15;19.90;;;11.03;;
5704;SDS011;2877;48.238;11.160;2023-03-01T07:33:41;17.67;;;10.43;;
5704;SDS011;2877;48.238;11.160;2023-03-01T07:36:06;16.67;;;10.97;;
5704;SDS011;2877;48.238;11.160;2023-03-01T07:38:32;18.80;;;10.43;;
5704;SDS011;2877;48.238;11.160;2023-03-01T07:40:59;18.23;;;11.03;;
5704;SDS011;2877;48.238;11.160;2023-03-01T07:43:27;18.43;;;10.63;;
5704;SDS011;2877;48.238;11.160;2023-03-01T07:45:53;17.50;;;10.53;;
5704;SDS011;2877;48.238;11.160;2023-03-01T07:48:19;15.20;;;9.57;;
5704;SDS011;2877;48.238;11.160;2023-03-01T07:50:44;14.93;;;9.53;;
5704;SDS011;2877;48.238;11.160;2023-03-01T07:53:11;17.07;;;11.00;;
5704;SDS011;2877;48.238;11.160;2023-03-01T07:55:36;15.17;;;9.80;;
5704;SDS011;2877;48.238;11.160;2023-03-01T07:58:02;16.20;;;10.20;;
5704;SDS011;2877;48.238;11.160;2023-03-01T08:00:28;21.23;;;11.53;;
5704;SDS011;2877;48.238;11.160;2023-03-01T08:02:54;16.13;;;9.67;;
5704;SDS011;2877;48.238;11.160;2023-03-01T08:05:19;16.90;;;11.17;;
5704;SDS011;2877;48.238;11.160;2023-03-01T08:07:47;17.83;;;10.53;;
5704;SDS011;2877;48.238;11.160;2023-03-01T08:10:13;15.90;;;9.67;;
5704;SDS011;2877;48.238;11.160;2023-03-01T08:12:38;15.23;;;9.80;;
5704;SDS011;2877;48.238;11.160;2023-03-01T08:15:04;25.00;;;12.27;;
5704;SDS011;2877;48.238;11.160;2023-03-01T08:17:30;19.50;;;12.20;;
5704;SDS011;2877;48.238;11.160;2023-03-01T08:19:55;19.47;;;12.20;;
5704;SDS011;2877;48.238;11.160;2023-03-01T08:22:21;18.03;;;10.60;;
5704;SDS011;2877;48.238;11.160;2023-03-01T08:24:46;19.07;;;10.77;;
5704;SDS011;2877;48.238;11.160;2023-03-01T08:27:12;16.20;;;10.53;;
5704;SDS011;2877;48.238;11.160;2023-03-01T08:29:39;20.13;;;12.73;;
5704;SDS011;2877;48.238;11.160;2023-03-01T08:32:05;19.00;;;11.80;;
5704;SDS011;2877;48.238;11.160;2023-03-01T08:34:30;19.60;;;11.73;;
5704;SDS011;2877;48.238;11.160;2023-03-01T08:36:56;20.23;;;11.83;;
5704;SDS011;2877;48.238;11.160;2023-03-01T08:39:22;17.90;;;11.40;;
5704;SDS011;2877;48.238;11.160;2023-03-01T08:41:47;17.63;;;11.03;;
5704;SDS011;2877;48.238;11.160;2023-03-01T08:44:13;18.90;;;10.97;;
5704;SDS011;2877;48.238;11.160;2023-03-01T08:46:41;14.40;;;10.13;;
5704;SDS011;2877;48.238;11.160;2023-03-01T08:49:08;16.97;;;10.30;;
5704;SDS011;2877;48.238;11.160;2023-03-01T08:51:36;16.40;;;10.43;;
5704;SDS011;2877;48.238;11.160;2023-03-01T08:54:05;15.63;;;10.47;;
5704;SDS011;2877;48.238;11.160;2023-03-01T08:56:34;19.70;;;10.13;;
5704;SDS011;2877;48.238;11.160;2023-03-01T08:59:00;21.70;;;11.37;;
5704;SDS011;2877;48.238;11.160;2023-03-01T09:01:25;18.53;;;11.97;;
5704;SDS011;2877;48.238;11.160;2023-03-01T09:03:51;20.50;;;10.30;;
5704;SDS011;2877;48.238;11.160;2023-03-01T09:06:17;17.53;;;11.30;;
5704;SDS011;2877;48.238;11.160;2023-03-01T09:08:43;17.70;;;11.00;;
5704;SDS011;2877;48.238;11.160;2023-03-01T09:11:12;19.13;;;11.33;;
5704;SDS011;2877;48.238;11.160;2023-03-01T09:13:40;20.10;;;11.43;;
5704;SDS011;2877;48.238;11.160;2023-03-01T09:16:06;17.20;;;11.50;;
5704;SDS011;2877;48.238;11.160;2023-03-01T09:18:33;17.20;;;10.27;;
5704;SDS011;2877;48.238;11.160;2023-03-01T09:21:07;15.97;;;10.37;;
5704;SDS011;2877;48.238;11.160;2023-03-01T09:23:38;18.80;;;11.00;;
5704;SDS011;2877;48.238;11.160;2023-03-01T09:26:06;19.10;;;10.97;;
5704;SDS011;2877;48.238;11.160;2023-03-01T09:28:36;16.67;;;10.50;;
5704;SDS011;2877;48.238;11.160;2023-03-01T09:31:01;18.40;;;11.40;;
5704;SDS011;2877;48.238;11.160;2023-03-01T09:33:28;18.53;;;12.00;;
5704;SDS011;2877;48.238;11.160;2023-03-01T09:36:00;17.40;;;11.00;;
5704;SDS011;2877;48.238;11.160;2023-03-01T09:38:26;19.47;;;11.80;;
5704;SDS011;2877;48.238;11.160;2023-03-01T09:40:52;19.23;;;10.80;;
5704;SDS011;2877;48.238;11.160;2023-03-01T09:43:21;18.90;;;11.47;;
5704;SDS011;2877;48.238;11.160;2023-03-01T09:45:55;16.53;;;10.50;;
5704;SDS011;2877;48.238;11.160;2023-03-01T09:48:25;17.33;;;11.40;;
5704;SDS011;2877;48.238;11.160;2023-03-01T09:50:54;19.97;;;12.03;;
5704;SDS011;2877;48.238;11.160;2023-03-01T09:53:22;18.70;;;11.50;;
5704;SDS011;2877;48.238;11.160;2023-03-01T09:55:55;19.97;;;11.23;;
5704;SDS011;2877;48.238;11.160;2023-03-01T10:07:22;18.87;;;11.73;;
5704;SDS011;2877;48.238;11.160;2023-03-01T10:10:16;17.37;;;10.00;;
5704;SDS011;2877;48.238;11.160;2023-03-01T10:16:11;15.87;;;10.10;;
5704;SDS011;2877;48.238;11.160;2023-03-01T10:18:40;20.57;;;12.27;;
5704;SDS011;2877;48.238;11.160;2023-03-01T10:21:14;22.37;;;10.90;;
5704;SDS011;2877;48.238;11.160;2023-03-01T10:23:42;17.20;;;10.40;;
5704;SDS011;2877;48.238;11.160;2023-03-01T10:31:20;15.83;;;10.30;;
5704;SDS011;2877;48.238;11.160;2023-03-01T10:33:53;17.00;;;10.30;;
5704;SDS011;2877;48.238;11.160;2023-03-01T10:36:21;17.00;;;10.63;;
5704;SDS011;2877;48.238;11.160;2023-03-01T10:38:49;19.07;;;11.33;;
5704;SDS011;2877;48.238;11.160;2023-03-01T10:41:21;18.97;;;11.13;;
5704;SDS011;2877;48.238;11.160;2023-03-01T10:43:55;19.90;;;11.77;;
5704;SDS011;2877;48.238;11.160;2023-03-01T10:46:29;29.07;;;12.03;;
5704;SDS011;2877;48.238;11.160;2023-03-01T10:51:46;17.83;;;12.00;;
5704;SDS011;2877;48.238;11.160;2023-03-01T10:54:30;20.20;;;12.17;;
5704;SDS011;2877;48.238;11.160;2023-03-01T10:56:58;20.10;;;11.20;;
5704;SDS011;2877;48.238;11.160;2023-03-01T10:59:32;23.67;;;12.57;;
5704;SDS011;2877;48.238;11.160;2023-03-01T11:04:34;19.30;;;12.50;;
5704;SDS011;2877;48.238;11.160;2023-03-01T11:07:00;21.10;;;13.50;;
5704;SDS011;2877;48.238;11.160;2023-03-01T11:09:29;18.93;;;11.70;;
5704;SDS011;2877;48.238;11.160;2023-03-01T11:12:02;17.00;;;11.77;;
5704;SDS011;2877;48.238;11.160;2023-03-01T11:14:33;20.00;;;13.53;;
5704;SDS011;2877;48.238;11.160;2023-03-01T11:17:11;20.33;;;12.90;;
5704;SDS011;2877;48.238;11.160;2023-03-01T11:20:14;20.40;;;11.87;;
5704;SDS011;2877;48.238;11.160;2023-03-01T11:22:44;25.30;;;12.90;;
5704;SDS011;2877;48.238;11.160;2023-03-01T11:25:19;25.67;;;12.90;;
5704;SDS011;2877;48.238;11.160;2023-03-01T11:28:02;20.13;;;12.60;;
5704;SDS011;2877;48.238;11.160;2023-03-01T11:33:57;20.10;;;13.13;;
5704;SDS011;2877;48.238;11.160;2023-03-01T11:36:13;22.23;;;13.47;;
5704;SDS011;2877;48.238;11.160;2023-03-01T11:38:53;23.47;;;14.10;;
5704;SDS011;2877;48.238;11.160;2023-03-01T11:41:20;20.30;;;12.67;;
5704;SDS011;2877;48.238;11.160;2023-03-01T11:43:56;21.27;;;13.67;;
5704;SDS011;2877;48.238;11.160;2023-03-01T11:49:04;20.70;;;12.07;;
5704;SDS011;2877;48.238;11.160;2023-03-01T11:54:23;23.17;;;14.00;;
5704;SDS011;2877;48.238;11.160;2023-03-01T11:56:55;21.47;;;12.47;;
5704;SDS011;2877;48.238;11.160;2023-03-01T12:02:35;20.43;;;13.03;;
5704;SDS011;2877;48.238;11.160;2023-03-01T12:19:43;23.10;;;13.47;;
5704;SDS011;2877;48.238;11.160;2023-03-01T12:22:38;20.10;;;13.10;;
5704;SDS011;2877;48.238;11.160;2023-03-01T12:25:31;21.10;;;14.00;;
5704;SDS011;2877;48.238;11.160;2023-03-01T12:28:07;20.70;;;11.70;;
5704;SDS011;2877;48.238;11.160;2023-03-01T12:44:29;21.40;;;13.90;;
5704;SDS011;2877;48.238;11.160;2023-03-01T12:49:33;18.77;;;12.83;;
5704;SDS011;2877;48.238;11.160;2023-03-01T12:52:16;19.70;;;12.80;;
5704;SDS011;2877;48.238;11.160;2023-03-01T12:54:54;22.77;;;13.23;;
5704;SDS011;2877;48.238;11.160;2023-03-01T12:57:28;19.60;;;12.40;;
5704;SDS011;2877;48.238;11.160;2023-03-01T13:06:08;19.90;;;13.20;;
5704;SDS011;2877;48.238;11.160;2023-03-01T13:08:48;23.13;;;15.13;;
5704;SDS011;2877;48.238;11.160;2023-03-01T13:11:22;24.93;;;15.03;;
5704;SDS011;2877;48.238;11.160;2023-03-01T13:13:48;24.90;;;14.63;;
5704;SDS011;2877;48.238;11.160;2023-03-01T13:16:38;19.70;;;13.97;;
5704;SDS011;2877;48.238;11.160;2023-03-01T13:19:20;22.07;;;14.33;;
5704;SDS011;2877;48.238;11.160;2023-03-01T13:21:48;24.73;;;14.60;;
5704;SDS011;2877;48.238;11.160;2023-03-01T13:24:29;18.07;;;13.10;;
5704;SDS011;2877;48.238;11.160;2023-03-01T13:32:20;19.30;;;13.40;;
5704;SDS011;2877;48.238;11.160;2023-03-01T13:34:50;17.07;;;12.07;;
5704;SDS011;2877;48.238;11.160;2023-03-01T13:37:22;20.03;;;12.53;;
5704;SDS011;2877;48.238;11.160;2023-03-01T13:39:59;19.37;;;12.67;;
5704;SDS011;2877;48.238;11.160;2023-03-01T13:42:37;20.27;;;12.20;;
5704;SDS011;2877;48.238;11.160;2023-03-01T13:45:15;23.17;;;13.20;;
5704;SDS011;2877;48.238;11.160;2023-03-01T13:48:21;18.27;;;12.10;;
5704;SDS011;2877;48.238;11.160;2023-03-01T13:50:56;17.20;;;12.03;;
5704;SDS011;2877;48.238;11.160;2023-03-01T13:53:26;19.67;;;13.13;;
5704;SDS011;2877;48.238;11.160;2023-03-01T13:55:59;18.33;;;12.80;;
5704;SDS011;2877;48.238;11.160;2023-03-01T13:58:33;18.87;;;12.30;;
5704;SDS011;2877;48.238;11.160;2023-03-01T14:01:21;19.17;;;12.00;;
5704;SDS011;2877;48.238;11.160;2023-03-01T14:03:47;17.80;;;11.97;;
5704;SDS011;2877;48.238;11.160;2023-03-01T14:06:13;15.40;;;11.47;;
5704;SDS011;2877;48.238;11.160;2023-03-01T14:08:44;17.47;;;11.63;;
5704;SDS011;2877;48.238;11.160;2023-03-01T14:11:20;22.40;;;12.13;;
5704;SDS011;2877;48.238;11.160;2023-03-01T14:16:57;21.33;;;12.40;;
5704;SDS011;2877;48.238;11.160;2023-03-01T14:19:26;18.80;;;12.13;;
5704;SDS011;2877;48.238;11.160;2023-03-01T14:24:49;19.30;;;13.17;;
5704;SDS011;2877;48.238;11.160;2023-03-01T14:27:26;18.13;;;11.40;;
5704;SDS011;2877;48.238;11.160;2023-03-01T14:29:59;19.07;;;11.50;;
5704;SDS011;2877;48.238;11.160;2023-03-01T14:32:29;19.00;;;12.67;;
5704;SDS011;2877;48.238;11.160;2023-03-01T14:34:56;18.80;;;12.20;;
5704;SDS011;2877;48.238;11.160;2023-03-01T14:37:28;15.47;;;10.63;;
5704;SDS011;2877;48.238;11.160;2023-03-01T14:39:59;17.80;;;10.60;;
5704;SDS011;2877;48.238;11.160;2023-03-01T14:42:27;16.00;;;10.77;;
5704;SDS011;2877;48.238;11.160;2023-03-01T14:44:56;19.30;;;11.87;;
5704;SDS011;2877;48.238;11.160;2023-03-01T14:47:26;16.60;;;11.43;;
5704;SDS011;2877;48.238;11.160;2023-03-01T14:49:57;18.70;;;11.47;;
5704;SDS011;2877;48.238;11.160;2023-03-01T14:52:25;16.80;;;10.83;;
5704;SDS011;2877;48.238;11.160;2023-03-01T14:55:00;16.37;;;11.03;;
5704;SDS011;2877;48.238;11.160;2023-03-01T14:57:38;18.73;;;11.80;;
5704;SDS011;2877;48.238;11.160;2023-03-01T15:00:10;15.87;;;10.70;;
5704;SDS011;2877;48.238;11.160;2023-03-01T15:02:44;15.93;;;11.17;;
5704;SDS011;2877;48.238;11.160;2023-03-01T15:05:13;20.17;;;12.90;;
5704;SDS011;2877;48.238;11.160;2023-03-01T15:07:40;21.00;;;12.50;;
5704;SDS011;2877;48.238;11.160;2023-03-01T15:10:27;24.07;;;13.83;;
5704;SDS011;2877;48.238;11.160;2023-03-01T15:16:02;25.80;;;14.67;;
5704;SDS011;2877;48.238;11.160;2023-03-01T15:18:32;24.10;;;11.93;;
5704;SDS011;2877;48.238;11.160;2023-03-01T15:21:08;24.50;;;13.73;;
5704;SDS011;2877;48.238;11.160;2023-03-01T15:23:40;34.43;;;16.57;;
5704;SDS011;2877;48.238;11.160;2023-03-01T15:26:06;36.20;;;17.30;;
5704;SDS011;2877;48.238;11.160;2023-03-01T15:28:48;17.60;;;10.50;;
5704;SDS011;2877;48.238;11.160;2023-03-01T15:33:45;18.07;;;10.53;;
5704;SDS011;2877;48.238;11.160;2023-03-01T15:39:03;18.90;;;10.60;;
5704;SDS011;2877;48.238;11.160;2023-03-01T15:41:38;18.07;;;11.43;;
5704;SDS011;2877;48.238;11.160;2023-03-01T15:44:23;16.80;;;11.00;;
5704;SDS011;2877;48.238;11.160;2023-03-01T15:46:54;19.20;;;12.00;;
5704;SDS011;2877;48.238;11.160;2023-03-01T15:49:37;15.23;;;11.00;;
5704;SDS011;2877;48.238;11.160;2023-03-01T15:52:22;18.57;;;10.83;;
5704;SDS011;2877;48.238;11.160;2023-03-01T15:54:54;14.70;;;9.80;;
5704;SDS011;2877;48.238;11.160;2023-03-01T15:57:24;16.83;;;11.13;;
5704;SDS011;2877;48.238;11.160;2023-03-01T15:59:50;16.00;;;10.93;;
5704;SDS011;2877;48.238;11.160;2023-03-01T16:02:15;15.03;;;10.50;;
5704;SDS011;2877;48.238;11.160;2023-03-01T16:04:41;15.67;;;11.27;;
5704;SDS011;2877;48.238;11.160;2023-03-01T16:07:08;18.13;;;11.40;;
5704;SDS011;2877;48.238;11.160;2023-03-01T16:09:34;20.10;;;11.10;;
5704;SDS011;2877;48.238;11.160;2023-03-01T16:12:00;16.80;;;11.57;;
5704;SDS011;2877;48.238;11.160;2023-03-01T16:14:26;15.10;;;10.07;;
5704;SDS011;2877;48.238;11.160;2023-03-01T16:16:52;19.70;;;10.60;;
5704;SDS011;2877;48.238;11.160;2023-03-01T16:19:18;15.33;;;9.97;;
5704;SDS011;2877;48.238;11.160;2023-03-01T16:21:43;16.20;;;10.97;;
5704;SDS011;2877;48.238;11.160;2023-03-01T16:24:11;17.10;;;11.63;;
5704;SDS011;2877;48.238;11.160;2023-03-01T16:26:37;21.17;;;10.80;;
5704;SDS011;2877;48.238;11.160;2023-03-01T16:29:03;15.03;;;9.83;;
5704;SDS011;2877;48.238;11.160;2023-03-01T16:31:29;18.13;;;10.73;;